Time;durP1;ratioP1;P1;durP2;ratioP2;P2;SDS_P1;SDS_P2;PMS_P1;PMS_P2;Temp;Humidity;BMP_temperature;BMP_pressure;BME280_temperature;BME280_humidity;BME280_pressure;Samples;Min_cycle;Max_cycle;Signal;HPM_P1;HPM_P2
2020/12/27 00:01:42;;;;;;;8.73;3.17;;;2.90;99.90;;;;;;4901439;28;20128;-80
2020/12/27 00:04:05;;;;;;;9.80;3.40;;;2.90;99.90;;;;;;4911597;28;20094;-80
2020/12/27 00:06:28;;;;;;;10.32;4.05;;;2.90;99.90;;;;;;4904430;28;20088;-80
2020/12/27 00:08:51;;;;;;;9.63;3.78;;;2.90;99.90;;;;;;4899255;28;20093;-81
2020/12/27 00:11:18;;;;;;;11.60;3.72;;;2.90;99.90;;;;;;4900061;28;20164;-80
2020/12/27 00:13:41;;;;;;;8.82;2.80;;;2.90;99.90;;;;;;4915017;28;20173;-81
2020/12/27 00:16:05;;;;;;;9.18;3.08;;;3.00;99.90;;;;;;4902398;28;22824;-81
2020/12/27 00:18:29;;;;;;;7.22;2.83;;;3.00;99.90;;;;;;4905718;28;20180;-82
2020/12/27 00:20:53;;;;;;;6.35;2.85;;;3.00;99.90;;;;;;4913613;28;20526;-81
2020/12/27 00:23:16;;;;;;;6.80;2.88;;;3.00;99.90;;;;;;4897171;28;20604;-80
2020/12/27 00:25:40;;;;;;;6.55;2.85;;;3.00;99.90;;;;;;4906726;28;20125;-81
2020/12/27 00:28:03;;;;;;;6.97;2.97;;;3.00;99.90;;;;;;4923761;28;20095;-80
2020/12/27 00:30:27;;;;;;;7.22;3.20;;;3.00;99.90;;;;;;4924109;28;20089;-80
2020/12/27 00:32:50;;;;;;;5.80;3.53;;;2.90;99.90;;;;;;4923679;28;20092;-80
2020/12/27 00:35:15;;;;;;;6.95;2.90;;;2.90;99.90;;;;;;4921943;28;22164;-80
2020/12/27 00:37:38;;;;;;;6.65;2.72;;;3.00;99.90;;;;;;4917547;28;20094;-81
2020/12/27 00:40:02;;;;;;;6.35;3.28;;;3.00;99.90;;;;;;4917372;28;23805;-80
2020/12/27 00:42:25;;;;;;;8.05;2.65;;;3.00;99.90;;;;;;4924755;28;20132;-80
2020/12/27 00:44:48;;;;;;;10.73;2.90;;;3.00;99.90;;;;;;4903309;28;20199;-80
2020/12/27 00:47:12;;;;;;;4.93;2.40;;;3.00;99.90;;;;;;4913494;28;20083;-79
2020/12/27 00:49:35;;;;;;;4.60;2.58;;;3.00;99.90;;;;;;4903762;28;20120;-80
2020/12/27 00:51:59;;;;;;;5.55;2.40;;;3.00;99.90;;;;;;4922794;28;20094;-80
2020/12/27 00:54:24;;;;;;;7.35;2.40;;;3.00;99.90;;;;;;4923858;28;20126;-80
2020/12/27 00:56:51;;;;;;;4.10;2.17;;;3.00;99.90;;;;;;4918379;28;20126;-81
2020/12/27 00:59:15;;;;;;;7.40;2.80;;;3.00;99.90;;;;;;4908588;28;20271;-80
2020/12/27 01:01:39;;;;;;;8.80;2.70;;;3.00;99.90;;;;;;4911348;28;20088;-80
2020/12/27 01:04:02;;;;;;;5.95;2.90;;;3.00;99.90;;;;;;4918152;28;20499;-79
2020/12/27 01:06:26;;;;;;;5.05;2.40;;;3.00;99.90;;;;;;4917556;28;20115;-79
2020/12/27 01:08:50;;;;;;;4.93;2.55;;;3.00;99.90;;;;;;4897723;28;20084;-79
2020/12/27 01:11:13;;;;;;;5.80;2.72;;;3.00;99.90;;;;;;4900258;28;20090;-80
2020/12/27 01:13:37;;;;;;;8.30;2.95;;;3.00;99.90;;;;;;4899890;28;20089;-79
2020/12/27 01:16:00;;;;;;;7.57;2.90;;;3.00;99.90;;;;;;4905844;28;20093;-79
2020/12/27 01:18:23;;;;;;;8.18;2.92;;;3.00;99.90;;;;;;4921367;28;20417;-79
2020/12/27 01:20:46;;;;;;;8.18;2.83;;;3.00;99.90;;;;;;4919204;28;20591;-79
2020/12/27 01:23:11;;;;;;;7.32;3.20;;;3.00;99.90;;;;;;4922412;28;20173;-80
2020/12/27 01:25:35;;;;;;;5.53;2.65;;;2.90;99.90;;;;;;4899149;28;20098;-81
2020/12/27 01:27:59;;;;;;;8.85;2.83;;;2.90;99.90;;;;;;4916952;28;20144;-80
2020/12/27 01:30:22;;;;;;;9.63;2.90;;;3.00;99.90;;;;;;4924591;28;20091;-80
2020/12/27 01:32:45;;;;;;;7.90;2.92;;;3.00;99.90;;;;;;4895137;28;20105;-80
2020/12/27 01:35:08;;;;;;;6.93;3.10;;;3.00;99.90;;;;;;4911988;28;20536;-79
2020/12/27 01:37:31;;;;;;;8.10;2.85;;;2.90;99.90;;;;;;4901362;28;20115;-80
2020/12/27 01:39:54;;;;;;;7.28;2.95;;;2.90;99.90;;;;;;4921297;28;20503;-79
2020/12/27 01:42:18;;;;;;;6.28;2.72;;;;;;;;;;4918402;28;20453;-80
2020/12/27 01:44:41;;;;;;;5.60;2.53;;;2.90;99.90;;;;;;4919978;28;20095;-80
2020/12/27 01:47:17;;;;;;;6.97;2.97;;;2.80;99.90;;;;;;4922470;28;20093;-80
2020/12/27 01:49:41;;;;;;;4.72;2.67;;;2.80;99.90;;;;;;4904971;28;20216;-79
2020/12/27 01:52:06;;;;;;;6.55;2.65;;;2.70;99.90;;;;;;4922912;28;20089;-80
2020/12/27 01:54:30;;;;;;;8.07;3.05;;;2.70;99.90;;;;;;4917142;28;20512;-80
2020/12/27 01:56:56;;;;;;;6.90;2.97;;;2.70;99.90;;;;;;4899448;28;20086;-79
2020/12/27 01:59:27;;;;;;;6.30;3.10;;;2.80;99.90;;;;;;4902952;28;20096;-79
2020/12/27 02:01:50;;;;;;;9.50;3.10;;;;;;;;;;4917547;28;20398;-78
2020/12/27 02:04:14;;;;;;;6.80;3.10;;;2.80;99.90;;;;;;4908138;28;20100;-79
2020/12/27 02:06:39;;;;;;;7.07;3.35;;;2.80;99.90;;;;;;4897786;28;20461;-79
2020/12/27 02:09:04;;;;;;;7.30;2.70;;;2.80;99.90;;;;;;4894185;28;20090;-79
2020/12/27 02:11:28;;;;;;;6.38;3.40;;;2.80;99.90;;;;;;4898432;28;20526;-79
2020/12/27 02:13:52;;;;;;;8.57;3.47;;;2.80;99.90;;;;;;4901764;28;20096;-80
2020/12/27 02:16:26;;;;;;;5.97;3.10;;;2.80;99.90;;;;;;4901378;28;20091;-80
2020/12/27 02:18:51;;;;;;;7.05;3.72;;;2.90;99.90;;;;;;4895477;28;20160;-78
2020/12/27 02:21:14;;;;;;;7.55;3.72;;;2.80;99.90;;;;;;4900354;28;20101;-80
2020/12/27 02:23:38;;;;;;;10.52;3.50;;;2.80;99.90;;;;;;4916482;28;20087;-80
2020/12/27 02:26:02;;;;;;;6.93;3.20;;;;;;;;;;4921384;28;20470;-80
2020/12/27 02:28:26;;;;;;;9.35;3.53;;;2.80;99.90;;;;;;4919135;28;20184;-80
2020/12/27 02:30:52;;;;;;;9.93;3.65;;;2.80;99.90;;;;;;4897575;28;20105;-80
2020/12/27 02:33:15;;;;;;;8.07;3.35;;;2.80;99.90;;;;;;4894037;28;20090;-79
2020/12/27 02:35:38;;;;;;;10.23;3.35;;;2.70;99.90;;;;;;4914374;28;20096;-79
2020/12/27 02:38:00;;;;;;;7.47;3.55;;;2.70;99.90;;;;;;4904886;28;20096;-80
2020/12/27 02:40:24;;;;;;;6.93;3.30;;;2.70;99.90;;;;;;4897834;28;20180;-79
2020/12/27 02:42:49;;;;;;;7.07;3.97;;;2.70;99.90;;;;;;4916998;28;20179;-80
2020/12/27 02:45:14;;;;;;;6.43;3.13;;;2.60;99.90;;;;;;4897497;28;20104;-80
2020/12/27 02:47:38;;;;;;;8.70;4.13;;;2.60;99.90;;;;;;4909588;28;20137;-80
2020/12/27 02:50:01;;;;;;;9.73;4.03;;;2.60;99.90;;;;;;4913707;28;20126;-79
2020/12/27 02:52:25;;;;;;;5.65;3.08;;;2.60;99.90;;;;;;4922185;28;20136;-79
2020/12/27 02:54:48;;;;;;;7.07;3.42;;;2.60;99.90;;;;;;4923078;28;20493;-80
2020/12/27 02:57:11;;;;;;;5.88;2.90;;;2.50;99.90;;;;;;4920283;28;20092;-80
2020/12/27 02:59:35;;;;;;;9.20;3.00;;;2.60;99.90;;;;;;4907007;28;20732;-79
2020/12/27 03:01:58;;;;;;;4.90;2.70;;;2.60;99.90;;;;;;4920455;28;20094;-80
2020/12/27 03:04:21;;;;;;;7.60;3.47;;;2.60;99.90;;;;;;4919332;28;20171;-80
2020/12/27 03:06:44;;;;;;;5.93;3.10;;;2.60;99.90;;;;;;4919904;28;20090;-79
2020/12/27 03:09:08;;;;;;;9.27;3.15;;;2.60;99.90;;;;;;4899846;28;20175;-80
2020/12/27 03:11:31;;;;;;;5.57;2.88;;;2.60;99.90;;;;;;4915708;28;20563;-79
2020/12/27 03:13:55;;;;;;;7.55;3.17;;;2.60;99.90;;;;;;4922533;28;20121;-80
2020/12/27 03:16:22;;;;;;;6.20;2.42;;;2.50;99.90;;;;;;4916026;28;20126;-79
2020/12/27 03:18:44;;;;;;;6.50;2.78;;;2.50;99.90;;;;;;4919458;28;20167;-80
2020/12/27 03:21:10;;;;;;;7.15;2.42;;;2.40;99.90;;;;;;4918725;28;20119;-80
2020/12/27 03:23:34;;;;;;;6.28;2.58;;;2.40;99.90;;;;;;4916538;28;20104;-80
2020/12/27 03:25:58;;;;;;;6.07;2.42;;;2.40;99.90;;;;;;4896699;28;20116;-80
2020/12/27 03:28:21;;;;;;;5.03;2.42;;;2.40;99.90;;;;;;4909064;28;20125;-80
2020/12/27 03:30:44;;;;;;;4.53;2.30;;;2.50;99.90;;;;;;4903448;28;20101;-80
2020/12/27 03:33:09;;;;;;;4.13;2.30;;;2.50;99.90;;;;;;4901990;28;20129;-81
2020/12/27 03:35:31;;;;;;;6.82;2.38;;;2.50;99.90;;;;;;4893822;28;20093;-80
2020/12/27 03:37:55;;;;;;;3.78;2.20;;;2.50;99.90;;;;;;4909791;28;20092;-79
2020/12/27 03:40:18;;;;;;;7.07;2.40;;;2.40;99.90;;;;;;4895508;28;20552;-79
2020/12/27 03:42:42;;;;;;;4.18;2.30;;;2.40;99.90;;;;;;4900004;28;20143;-79
2020/12/27 03:45:05;;;;;;;5.97;2.90;;;2.40;99.90;;;;;;4897173;28;20101;-79
2020/12/27 03:47:28;;;;;;;5.93;2.55;;;2.40;99.90;;;;;;4925857;28;20092;-80
2020/12/27 03:49:52;;;;;;;8.07;2.90;;;2.40;99.90;;;;;;4904945;28;20084;-80
2020/12/27 03:52:16;;;;;;;5.88;2.20;;;2.40;99.90;;;;;;4904330;28;20092;-80
2020/12/27 03:54:38;;;;;;;7.97;2.67;;;2.30;99.90;;;;;;4900986;28;20139;-79
2020/12/27 03:57:02;;;;;;;4.78;2.63;;;2.30;99.90;;;;;;4902341;28;20092;-80
2020/12/27 03:59:25;;;;;;;7.28;2.35;;;2.30;99.90;;;;;;4907789;28;20088;-80
2020/12/27 04:01:48;;;;;;;5.20;2.42;;;2.30;99.90;;;;;;4913948;28;20110;-80
2020/12/27 04:04:11;;;;;;;4.50;2.42;;;2.30;99.90;;;;;;4915048;28;20084;-80
2020/12/27 04:06:35;;;;;;;10.90;2.83;;;2.30;99.90;;;;;;4915660;28;20486;-81
2020/12/27 04:08:58;;;;;;;8.32;2.28;;;2.30;99.90;;;;;;4920339;28;20147;-81
2020/12/27 04:11:21;;;;;;;5.53;2.53;;;2.30;99.90;;;;;;4922497;28;20111;-80
2020/12/27 04:13:44;;;;;;;5.05;2.13;;;2.30;99.90;;;;;;4902565;28;20093;-80
2020/12/27 04:16:08;;;;;;;8.02;2.08;;;2.20;99.90;;;;;;4898379;28;20085;-80
2020/12/27 04:18:31;;;;;;;7.72;2.58;;;2.20;99.90;;;;;;4898112;28;20566;-81
2020/12/27 04:20:56;;;;;;;5.18;2.25;;;2.10;99.90;;;;;;4917110;28;20124;-80
2020/12/27 04:23:20;;;;;;;5.05;2.20;;;;;;;;;;4870762;28;20181;-80
2020/12/27 04:25:43;;;;;;;6.18;2.50;;;2.10;99.90;;;;;;4898907;28;20099;-80
2020/12/27 04:28:06;;;;;;;4.10;2.20;;;;;;;;;;4910795;28;20164;-80
2020/12/27 04:30:29;;;;;;;6.20;2.42;;;2.00;99.90;;;;;;4898945;28;20579;-80
2020/12/27 04:32:52;;;;;;;4.32;2.20;;;2.00;99.90;;;;;;4897784;28;20148;-80
2020/12/27 04:35:15;;;;;;;3.67;2.10;;;2.00;99.90;;;;;;4905454;28;20085;-80
2020/12/27 04:37:38;;;;;;;5.50;2.35;;;2.00;99.90;;;;;;4883725;28;20172;-80
2020/12/27 04:40:03;;;;;;;9.40;2.15;;;1.90;99.90;;;;;;4902192;28;20175;-80
2020/12/27 04:42:26;;;;;;;8.32;2.65;;;1.90;99.90;;;;;;4904856;28;20108;-80
2020/12/27 04:44:50;;;;;;;4.60;2.10;;;1.90;99.90;;;;;;4901271;28;20218;-80
2020/12/27 04:47:14;;;;;;;11.80;2.05;;;1.90;99.90;;;;;;4921915;28;20086;-81
2020/12/27 04:49:37;;;;;;;5.20;2.13;;;1.90;99.90;;;;;;4913115;28;20094;-80
2020/12/27 04:52:02;;;;;;;4.30;2.25;;;;;;;;;;4900489;28;20125;-80
2020/12/27 04:54:28;;;;;;;3.28;2.03;;;2.00;99.90;;;;;;4916022;28;20487;-81
2020/12/27 04:56:53;;;;;;;5.53;2.78;;;2.00;99.90;;;;;;4897974;28;20086;-80
2020/12/27 04:59:16;;;;;;;5.47;2.20;;;2.00;99.90;;;;;;4912257;28;23147;-79
2020/12/27 05:01:40;;;;;;;3.88;1.85;;;1.90;99.90;;;;;;4923301;28;20182;-80
2020/12/27 05:04:03;;;;;;;5.32;2.40;;;1.90;99.90;;;;;;4920657;28;20103;-81
2020/12/27 05:06:27;;;;;;;4.90;2.58;;;1.80;99.90;;;;;;4923990;28;20093;-80
2020/12/27 05:08:50;;;;;;;6.32;2.55;;;1.80;99.90;;;;;;4920792;28;20167;-81
2020/12/27 05:11:15;;;;;;;5.15;2.35;;;1.90;99.90;;;;;;4921210;28;20567;-81
2020/12/27 05:13:39;;;;;;;6.25;2.83;;;;;;;;;;4919425;28;20086;-81
2020/12/27 05:16:05;;;;;;;8.32;3.03;;;1.80;99.90;;;;;;4921241;28;20095;-79
2020/12/27 05:18:27;;;;;;;6.63;3.10;;;1.80;99.90;;;;;;4918125;28;20475;-80
2020/12/27 05:20:52;;;;;;;7.88;3.08;;;1.80;99.90;;;;;;4919575;28;20085;-80
2020/12/27 05:23:15;;;;;;;4.80;2.83;;;1.80;99.90;;;;;;4921460;28;20576;-81
2020/12/27 05:25:39;;;;;;;5.20;2.90;;;1.80;99.90;;;;;;4907845;28;21166;-79
2020/12/27 05:28:05;;;;;;;4.60;2.20;;;1.80;99.90;;;;;;4903816;28;20465;-80
2020/12/27 05:30:29;;;;;;;5.47;2.72;;;;;;;;;;4899234;28;20566;-79
2020/12/27 05:32:52;;;;;;;6.25;2.78;;;1.70;99.90;;;;;;4893024;28;20117;-79
2020/12/27 05:35:17;;;;;;;7.43;3.17;;;1.70;99.90;;;;;;4905769;28;20581;-80
2020/12/27 05:37:41;;;;;;;6.80;3.25;;;1.70;99.90;;;;;;4905310;28;20557;-80
2020/12/27 05:40:07;;;;;;;5.57;2.63;;;1.70;99.90;;;;;;4897406;28;20102;-80
2020/12/27 05:42:32;;;;;;;;;;;1.70;99.90;;;;;;4896244;28;20112;-79
2020/12/27 05:44:55;;;;;;;4.57;2.60;;;1.70;99.90;;;;;;4896147;28;20025;-81
2020/12/27 05:47:20;;;;;;;5.63;3.08;;;1.70;99.90;;;;;;4896895;28;20098;-80
2020/12/27 05:49:45;;;;;;;4.28;2.55;;;1.60;99.90;;;;;;4913020;28;20099;-80
2020/12/27 05:52:13;;;;;;;;;;;1.70;99.90;;;;;;4901085;28;20104;-80
2020/12/27 05:54:37;;;;;;;4.43;2.45;;;1.70;99.90;;;;;;4897034;28;19967;-80
2020/12/27 05:57:01;;;;;;;5.10;2.53;;;1.70;99.90;;;;;;4897731;28;20091;-81
2020/12/27 05:59:30;;;;;;;9.97;2.97;;;1.70;99.90;;;;;;4899011;28;25817;-81
2020/12/27 06:01:57;;;;;;;7.18;3.05;;;1.60;99.90;;;;;;4898936;28;20489;-80
2020/12/27 06:04:49;;;;;;;6.25;2.78;;;1.60;99.90;;;;;;4900299;28;20091;-81
2020/12/27 06:07:26;;;;;;;8.52;3.10;;;1.60;99.90;;;;;;4884112;28;20168;-80
2020/12/27 06:10:13;;;;;;;8.00;2.92;;;1.60;99.90;;;;;;4893302;28;20175;-81
2020/12/27 06:13:08;;;;;;;5.53;2.80;;;1.60;99.90;;;;;;4920280;28;20534;-80
2020/12/27 06:15:36;;;;;;;9.20;2.83;;;1.60;99.90;;;;;;4916946;28;20129;-80
2020/12/27 06:18:09;;;;;;;6.72;2.55;;;1.60;99.90;;;;;;4926153;28;20090;-80
2020/12/27 06:20:36;;;;;;;8.63;2.92;;;1.60;99.90;;;;;;4914578;28;20100;-82
2020/12/27 06:23:02;;;;;;;6.03;2.92;;;1.60;99.90;;;;;;4915705;28;20504;-80
2020/12/27 06:25:26;;;;;;;;;;;1.60;99.90;;;;;;4920220;28;20081;-81
2020/12/27 06:27:48;;;;;;;7.45;3.50;;;1.60;99.90;;;;;;4920755;28;19975;-81
2020/12/27 06:30:19;;;;;;;5.03;2.50;;;1.60;99.90;;;;;;4922175;28;20095;-80
2020/12/27 06:32:47;;;;;;;6.68;2.42;;;1.50;99.90;;;;;;4897671;28;20593;-80
2020/12/27 06:35:11;;;;;;;5.45;2.90;;;1.60;99.90;;;;;;4895800;28;20549;-81
2020/12/27 06:37:44;;;;;;;8.85;3.00;;;1.60;99.90;;;;;;4908955;28;20125;-80
2020/12/27 06:40:07;;;;;;;7.40;2.50;;;1.60;99.90;;;;;;4897474;28;20106;-81
2020/12/27 06:42:30;;;;;;;5.13;2.50;;;1.60;99.90;;;;;;4910214;28;20089;-81
2020/12/27 06:44:55;;;;;;;8.63;2.40;;;1.60;99.90;;;;;;4917126;28;20486;-80
2020/12/27 06:47:19;;;;;;;6.13;2.72;;;1.60;99.90;;;;;;4897766;28;20212;-81
2020/12/27 06:49:42;;;;;;;8.55;2.72;;;1.50;99.90;;;;;;4897019;28;20106;-80
2020/12/27 06:52:20;;;;;;;5.95;2.47;;;1.60;99.90;;;;;;4906424;28;20097;-81
2020/12/27 06:54:47;;;;;;;5.60;2.45;;;1.50;99.90;;;;;;4894877;28;20105;-81
2020/12/27 06:57:41;;;;;;;6.03;2.90;;;1.60;99.90;;;;;;4918053;28;20475;-81
2020/12/27 07:00:19;;;;;;;7.47;2.60;;;1.50;99.90;;;;;;4917529;28;20449;-80
2020/12/27 07:02:43;;;;;;;6.30;3.08;;;1.50;99.90;;;;;;4919268;28;20133;-80
2020/12/27 07:05:06;;;;;;;5.35;2.22;;;;;;;;;;4917873;28;20099;-81
2020/12/27 07:07:44;;;;;;;4.25;2.30;;;1.50;99.90;;;;;;4895098;28;20171;-81
2020/12/27 07:10:10;;;;;;;9.00;2.80;;;1.40;99.90;;;;;;4899631;28;20095;-81
2020/12/27 07:12:36;;;;;;;7.63;2.88;;;1.40;99.90;;;;;;4875867;28;20482;-81
2020/12/27 07:14:59;;;;;;;6.35;2.15;;;1.40;99.90;;;;;;4923205;28;20510;-80
2020/12/27 07:17:27;;;;;;;4.72;2.10;;;1.40;99.90;;;;;;4895179;28;20088;-82
2020/12/27 07:19:59;;;;;;;6.22;2.67;;;1.40;99.90;;;;;;4912507;28;20107;-82
2020/12/27 07:22:25;;;;;;;6.65;3.20;;;1.30;99.90;;;;;;4920986;28;21854;-80
2020/12/27 07:24:52;;;;;;;8.48;2.78;;;1.30;99.90;;;;;;4920438;28;20088;-80
2020/12/27 07:27:18;;;;;;;4.57;2.15;;;1.30;99.90;;;;;;4917152;28;20619;-81
2020/12/27 07:29:53;;;;;;;5.93;2.75;;;1.30;99.90;;;;;;4897812;28;20148;-81
2020/12/27 07:32:23;;;;;;;7.78;2.65;;;1.30;99.90;;;;;;4903035;28;20096;-81
2020/12/27 07:34:46;;;;;;;4.75;2.47;;;1.30;99.90;;;;;;4901194;28;20100;-81
2020/12/27 07:37:09;;;;;;;7.32;2.63;;;1.30;99.90;;;;;;4890308;28;20092;-80
2020/12/27 07:39:53;;;;;;;10.65;3.78;;;1.20;99.90;;;;;;4895447;28;20545;-82
2020/12/27 07:42:20;;;;;;;9.43;2.92;;;;;;;;;;4917177;28;20157;-80
2020/12/27 07:44:46;;;;;;;6.28;2.92;;;1.30;99.90;;;;;;4914344;28;20158;-80
2020/12/27 07:47:10;;;;;;;6.90;3.20;;;;;;;;;;4897323;28;20100;-80
2020/12/27 07:49:33;;;;;;;7.78;2.78;;;1.40;99.90;;;;;;4924367;28;20096;-81
2020/12/27 07:51:56;;;;;;;4.63;2.67;;;1.40;99.90;;;;;;4903501;28;20088;-82
2020/12/27 07:54:19;;;;;;;7.35;3.65;;;1.40;99.90;;;;;;4897094;28;20127;-80
2020/12/27 07:56:43;;;;;;;6.63;3.08;;;1.40;99.90;;;;;;4899335;28;20103;-80
2020/12/27 07:59:07;;;;;;;11.95;3.53;;;;;;;;;;4904416;28;20192;-81
2020/12/27 08:01:32;;;;;;;8.07;3.60;;;1.30;99.90;;;;;;4920925;28;20546;-81
2020/12/27 08:03:56;;;;;;;11.98;4.45;;;1.40;99.90;;;;;;4898418;28;20091;-81
2020/12/27 08:06:20;;;;;;;11.10;3.20;;;1.40;99.90;;;;;;4901978;28;20093;-81
2020/12/27 08:08:43;;;;;;;7.28;3.28;;;1.40;99.90;;;;;;4901245;28;20130;-80
2020/12/27 08:11:19;;;;;;;6.15;3.05;;;1.40;99.90;;;;;;4899996;28;20631;-80
2020/12/27 08:13:42;;;;;;;14.88;3.70;;;1.40;99.90;;;;;;4900417;28;20149;-80
2020/12/27 08:16:10;;;;;;;11.25;3.03;;;;;;;;;;4898385;28;20166;-81
2020/12/27 08:18:33;;;;;;;7.15;3.47;;;1.40;99.90;;;;;;4904368;28;20545;-80
2020/12/27 08:20:56;;;;;;;12.13;3.40;;;1.40;99.90;;;;;;4900102;28;20522;-81
2020/12/27 08:23:20;;;;;;;9.20;3.88;;;1.40;99.90;;;;;;4923911;28;20098;-80
2020/12/27 08:25:43;;;;;;;7.88;3.22;;;1.40;99.90;;;;;;4904888;28;20148;-81
2020/12/27 08:28:09;;;;;;;7.40;3.33;;;1.40;99.90;;;;;;4901204;28;20219;-81
2020/12/27 08:30:33;;;;;;;7.80;2.83;;;1.40;99.90;;;;;;4903189;28;20567;-80
2020/12/27 08:33:09;;;;;;;11.57;3.35;;;1.40;99.90;;;;;;4898711;28;20099;-80
2020/12/27 08:35:32;;;;;;;26.27;3.95;;;;;;;;;;4897883;28;20104;-81
2020/12/27 08:38:00;;;;;;;7.18;3.47;;;;;;;;;;4901816;28;21548;-81
2020/12/27 08:40:28;;;;;;;12.38;3.03;;;1.50;99.90;;;;;;4897075;28;20105;-81
2020/12/27 08:42:55;;;;;;;10.68;3.35;;;1.50;99.90;;;;;;4923455;28;20118;-82
2020/12/27 08:45:19;;;;;;;9.90;3.72;;;;;;;;;;4919928;28;20898;-82
2020/12/27 08:47:53;;;;;;;6.63;3.45;;;1.60;99.90;;;;;;4917697;28;20091;-80
2020/12/27 08:50:23;;;;;;;8.55;2.53;;;1.70;99.90;;;;;;4923905;28;20555;-80
2020/12/27 08:52:49;;;;;;;9.88;4.82;;;1.60;99.90;;;;;;4919252;28;20132;-80
2020/12/27 08:55:14;;;;;;;9.43;3.83;;;1.60;99.90;;;;;;4921447;28;20095;-81
2020/12/27 08:57:37;;;;;;;11.35;3.45;;;1.70;99.90;;;;;;4924432;28;20173;-80
2020/12/27 09:00:04;;;;;;;6.20;3.33;;;1.70;99.90;;;;;;4916626;28;20097;-81
2020/12/27 09:02:29;;;;;;;6.45;3.00;;;1.70;99.90;;;;;;4880510;28;20100;-80
2020/12/27 09:05:03;;;;;;;7.90;4.18;;;1.70;99.90;;;;;;4869852;28;20122;-82
2020/12/27 09:07:56;;;;;;;10.88;3.53;;;1.70;99.90;;;;;;4879641;28;20550;-81
2020/12/27 09:10:47;;;;;;;13.23;4.07;;;1.80;99.90;;;;;;4846677;28;20092;-80
2020/12/27 09:13:50;;;;;;;10.82;3.00;;;1.80;99.90;;;;;;4842101;28;20094;-80
2020/12/27 09:16:33;;;;;;;10.23;3.63;;;1.80;99.90;;;;;;4864480;28;20107;-81
2020/12/27 09:18:57;;;;;;;9.98;3.47;;;1.90;99.90;;;;;;4872188;28;20175;-81
2020/12/27 09:21:55;;;;;;;9.38;3.40;;;1.90;99.90;;;;;;4868142;28;20093;-81
2020/12/27 09:31:49;;;;;;;8.75;3.10;;;1.90;99.90;;;;;;4866829;28;20108;-80
2020/12/27 09:37:23;;;;;;;5.10;2.22;;;2.00;99.90;;;;;;4868494;28;20141;-82
2020/12/27 09:47:20;;;;;;;5.88;2.17;;;2.00;99.90;;;;;;4856111;28;20091;-81
2020/12/27 09:53:44;;;;;;;6.93;2.80;;;2.10;99.90;;;;;;4866900;28;20098;-80
2020/12/27 10:10:35;;;;;;;7.00;1.98;;;2.20;99.90;;;;;;4863898;28;20093;-81
2020/12/27 10:13:48;;;;;;;3.95;1.92;;;2.30;99.90;;;;;;4847205;28;20101;-81
2020/12/27 10:16:56;;;;;;;4.18;2.22;;;2.30;99.90;;;;;;4852780;28;20087;-81
2020/12/27 10:22:44;;;;;;;12.70;2.05;;;2.30;99.90;;;;;;4860055;28;20622;-81
2020/12/27 10:25:21;;;;;;;3.42;1.67;;;2.30;99.90;;;;;;4849816;28;20099;-80
2020/12/27 10:32:10;;;;;;;5.15;1.58;;;2.30;99.90;;;;;;4850173;28;20088;-81
2020/12/27 10:38:17;;;;;;;4.63;1.65;;;2.30;99.90;;;;;;4860726;28;20100;-81
2020/12/27 10:44:34;;;;;;;5.53;2.53;;;2.30;99.90;;;;;;4863643;28;20097;-82
2020/12/27 10:46:59;;;;;;;3.10;1.63;;;2.30;99.90;;;;;;4892166;28;20098;-83
2020/12/27 10:49:24;;;;;;;3.33;1.50;;;2.30;99.90;;;;;;4917341;28;20110;-82
2020/12/27 10:51:47;;;;;;;4.50;1.75;;;2.30;99.90;;;;;;4916058;28;20679;-82
2020/12/27 10:54:11;;;;;;;4.60;1.58;;;2.30;99.90;;;;;;4922644;28;20087;-81
2020/12/27 10:56:35;;;;;;;3.58;1.73;;;2.30;99.90;;;;;;4921327;28;20105;-80
2020/12/27 10:58:58;;;;;;;3.03;1.38;;;2.30;99.90;;;;;;4914666;28;20171;-82
2020/12/27 11:01:21;;;;;;;3.83;1.73;;;2.30;99.90;;;;;;4922899;28;20506;-81
2020/12/27 11:03:44;;;;;;;1.90;1.05;;;2.30;99.90;;;;;;4918037;28;20442;-82
2020/12/27 11:06:07;;;;;;;5.40;2.15;;;2.30;99.90;;;;;;4922397;28;20099;-80
2020/12/27 11:08:30;;;;;;;3.83;1.40;;;2.30;99.90;;;;;;4921759;28;20160;-80
2020/12/27 11:10:53;;;;;;;4.15;1.50;;;2.30;99.90;;;;;;4922959;28;20550;-80
2020/12/27 11:13:17;;;;;;;2.17;1.45;;;2.30;99.90;;;;;;4916806;28;20167;-81
2020/12/27 11:15:40;;;;;;;1.50;1.20;;;2.30;99.90;;;;;;4926122;28;20168;-81
2020/12/27 11:18:03;;;;;;;2.10;1.10;;;2.30;99.90;;;;;;4918307;28;20086;-80
2020/12/27 11:20:27;;;;;;;4.53;1.02;;;2.30;99.90;;;;;;4923741;28;20107;-80
2020/12/27 11:22:50;;;;;;;2.75;1.65;;;2.30;99.90;;;;;;4923736;28;20136;-81
2020/12/27 11:25:13;;;;;;;2.42;0.88;;;2.30;99.90;;;;;;4920359;28;20088;-81
2020/12/27 11:27:37;;;;;;;3.95;1.50;;;2.30;99.90;;;;;;4912603;28;20097;-80
2020/12/27 11:30:01;;;;;;;2.63;0.95;;;2.30;99.90;;;;;;4918649;28;20097;-81
2020/12/27 11:32:24;;;;;;;7.63;2.17;;;2.30;99.90;;;;;;4911558;28;20086;-80
2020/12/27 11:34:49;;;;;;;2.53;1.30;;;2.20;99.90;;;;;;4922111;28;20121;-81
2020/12/27 11:37:12;;;;;;;1.77;1.02;;;2.20;99.90;;;;;;4919543;28;20100;-81
2020/12/27 11:39:35;;;;;;;2.83;1.27;;;2.20;99.90;;;;;;4921228;28;20179;-81
2020/12/27 11:41:59;;;;;;;2.63;1.48;;;2.30;99.90;;;;;;4918229;28;20098;-81
2020/12/27 11:44:22;;;;;;;3.42;1.30;;;2.20;99.90;;;;;;4923135;28;20245;-81
2020/12/27 11:46:47;;;;;;;3.05;1.42;;;2.30;99.90;;;;;;4922564;28;20116;-81
2020/12/27 11:49:10;;;;;;;2.13;1.20;;;2.20;99.90;;;;;;4919425;28;20656;-82
2020/12/27 11:51:33;;;;;;;2.40;1.08;;;2.20;99.90;;;;;;4919158;28;20432;-81
2020/12/27 11:53:57;;;;;;;3.63;1.30;;;2.20;99.90;;;;;;4917566;28;20172;-81
2020/12/27 11:56:20;;;;;;;3.00;1.38;;;2.20;99.90;;;;;;4915082;28;20090;-81
2020/12/27 11:58:44;;;;;;;5.55;1.50;;;2.20;99.90;;;;;;4914883;28;20526;-81
2020/12/27 12:01:10;;;;;;;3.88;1.58;;;2.30;99.90;;;;;;4919912;28;20193;-81
2020/12/27 12:03:34;;;;;;;2.60;1.58;;;;;;;;;;4916267;28;20100;-81
2020/12/27 12:05:57;;;;;;;5.30;1.60;;;2.20;99.90;;;;;;4917050;28;20134;-81
2020/12/27 12:08:20;;;;;;;2.60;1.05;;;2.30;99.90;;;;;;4915306;28;20498;-81
2020/12/27 12:10:45;;;;;;;5.40;1.50;;;2.30;99.90;;;;;;4900384;28;20278;-81
2020/12/27 12:13:09;;;;;;;4.43;1.10;;;2.20;99.90;;;;;;4917859;28;20096;-82
2020/12/27 12:15:32;;;;;;;4.53;1.50;;;;;;;;;;4911910;28;20093;-82
2020/12/27 12:17:55;;;;;;;1.35;0.98;;;2.20;99.90;;;;;;4923100;28;20550;-83
2020/12/27 12:23:00;;;;;;;2.35;1.10;;;2.20;99.90;;;;;;4917040;28;20091;-82
2020/12/27 12:25:23;;;;;;;9.75;1.77;;;2.20;99.90;;;;;;4913232;28;20169;-83
2020/12/27 12:27:47;;;;;;;2.90;1.33;;;2.20;99.90;;;;;;4921878;28;20083;-83
2020/12/27 12:30:09;;;;;;;3.33;1.88;;;2.20;99.90;;;;;;4919523;28;20104;-81
2020/12/27 12:32:32;;;;;;;3.13;1.48;;;2.20;99.90;;;;;;4917930;28;20087;-80
2020/12/27 12:34:55;;;;;;;4.20;1.95;;;2.20;99.90;;;;;;4919507;28;20571;-82
2020/12/27 12:37:19;;;;;;;5.63;2.67;;;2.20;99.90;;;;;;4921951;28;20084;-82
2020/12/27 12:39:47;;;;;;;5.60;1.50;;;2.20;99.90;;;;;;4918572;28;20098;-83
2020/12/27 12:42:10;;;;;;;5.25;1.80;;;2.10;99.90;;;;;;4921103;28;20490;-81
2020/12/27 12:44:33;;;;;;;5.45;1.40;;;2.20;99.90;;;;;;4920442;28;20539;-80
2020/12/27 12:46:58;;;;;;;3.92;1.67;;;2.20;99.90;;;;;;4917370;28;20130;-82
2020/12/27 12:49:20;;;;;;;2.92;1.20;;;2.10;99.90;;;;;;4926838;28;20122;-84
2020/12/27 12:51:44;;;;;;;15.88;1.95;;;2.10;99.90;;;;;;4924127;28;20544;-82
2020/12/27 12:54:08;;;;;;;4.85;1.23;;;;;;;;;;4919514;28;20092;-82
2020/12/27 12:56:31;;;;;;;2.15;1.30;;;2.10;99.90;;;;;;4917631;28;20093;-82
2020/12/27 12:58:54;;;;;;;3.08;1.50;;;2.10;99.90;;;;;;4920415;28;20178;-82
2020/12/27 13:01:17;;;;;;;3.05;1.70;;;2.20;99.90;;;;;;4919724;28;20132;-81
2020/12/27 13:03:42;;;;;;;7.95;1.77;;;2.10;99.90;;;;;;4921018;28;20133;-82
2020/12/27 13:06:09;;;;;;;3.05;1.90;;;2.10;99.90;;;;;;4920499;28;20087;-83
2020/12/27 13:08:39;;;;;;;4.35;2.05;;;2.20;99.90;;;;;;4919619;28;20099;-81
2020/12/27 13:11:03;;;;;;;3.13;1.80;;;2.20;99.90;;;;;;4917956;28;20157;-82
2020/12/27 13:13:26;;;;;;;3.92;1.75;;;2.20;99.90;;;;;;4917493;28;20093;-82
2020/12/27 13:15:49;;;;;;;3.00;1.67;;;2.10;99.90;;;;;;4909886;28;20127;-82
2020/12/27 13:18:12;;;;;;;2.40;1.20;;;2.10;99.90;;;;;;4920400;28;20184;-82
2020/12/27 13:20:35;;;;;;;6.32;1.77;;;2.10;99.90;;;;;;4916156;28;20169;-82
2020/12/27 13:22:58;;;;;;;6.70;1.70;;;2.10;99.90;;;;;;4920367;28;20176;-82
2020/12/27 13:25:21;;;;;;;2.17;0.90;;;2.10;99.90;;;;;;4922430;28;20093;-81
2020/12/27 13:27:45;;;;;;;5.00;1.85;;;;;;;;;;4919878;28;20093;-82
2020/12/27 13:30:09;;;;;;;3.58;1.10;;;2.10;99.90;;;;;;4916180;28;20777;-81
2020/12/27 13:32:33;;;;;;;4.05;1.67;;;2.10;99.90;;;;;;4919911;28;20568;-81
2020/12/27 13:34:56;;;;;;;2.33;1.20;;;2.40;99.90;;;;;;4919180;28;20110;-81
2020/12/27 13:37:19;;;;;;;3.17;1.48;;;2.20;99.90;;;;;;4917401;28;20169;-81
2020/12/27 13:39:44;;;;;;;3.30;1.45;;;2.20;99.90;;;;;;4915141;28;20097;-82
2020/12/27 13:42:08;;;;;;;3.08;1.25;;;2.20;99.90;;;;;;4920441;28;20099;-81
2020/12/27 13:44:31;;;;;;;1.45;0.93;;;2.20;99.90;;;;;;4924649;28;20167;-82
2020/12/27 13:46:54;;;;;;;2.67;1.38;;;2.20;99.90;;;;;;4913867;28;20093;-81
2020/12/27 13:49:17;;;;;;;4.50;1.17;;;2.20;99.90;;;;;;4920278;28;20467;-82